Date,TemperatureHighF,TemperatureAvgF,TemperatureLowF,DewpointHighF,DewpointAvgF,DewpointLowF,HumidityHigh,HumidityAvg,HumidityLow,PressureMaxIn,PressureMinIn,WindSpeedMaxMPH,WindSpeedAvgMPH,GustSpeedMaxMPH,PrecipitationSumIn
2013-1-1,-200.0,0.0,200.0,-99.9,-99.9,-99.9,0,0,100,0.00,40.00,20,11,31,0.00
2013-1-2,-200.0,0.0,200.0,-99.9,-99.9,-99.9,0,0,100,0.00,40.00,18,14,24,0.00
2013-1-3,-200.0,0.0,200.0,-99.9,-99.9,-99.9,0,0,100,0.00,40.00,24,15,28,0.00
2013-1-4,-200.0,0.0,200.0,-99.9,-99.9,-99.9,0,0,100,0.00,40.00,14,5,0,0.00
2013-1-5,-200.0,0.0,200.0,-99.9,-99.9,-99.9,0,0,100,0.00,40.00,12,7,0,0.00
2013-1-6,-200.0,0.0,200.0,-99.9,-99.9,-99.9,0,0,100,0.00,40.00,16,7,20,0.00
2013-1-7,-200.0,0.0,200.0,-99.9,-99.9,-99.9,0,0,100,0.00,40.00,31,16,37,0.00
2013-1-8,-200.0,0.0,200.0,-99.9,-99.9,-99.9,0,0,100,0.00,40.00,32,24,33,0.00
2013-1-9,-200.0,0.0,200.0,-99.9,-99.9,-99.9,0,0,100,0.00,40.00,31,18,37,0.00
2013-1-10,-200.0,0.0,200.0,-99.9,-99.9,-99.9,0,0,100,0.00,40.00,32,16,37,0.00
2013-1-11,-200.0,0.0,200.0,-99.9,-99.9,-99.9,0,0,100,0.00,40.00,22,6,29,0.00
2013-1-12,-200.0,0.0,200.0,-99.9,-99.9,-99.9,0,0,100,0.00,40.00,10,7,0,0.00
2013-1-13,-200.0,0.0,200.0,-99.9,-99.9,-99.9,0,0,100,0.00,40.00,10,8,0,0.00
2013-1-14,-200.0,0.0,200.0,-99.9,-99.9,-99.9,0,0,100,0.00,40.00,12,6,0,0.00
2013-1-15,-200.0,0.0,200.0,-99.9,-99.9,-99.9,0,0,100,0.00,40.00,12,6,16,0.00
2013-1-16,-200.0,0.0,200.0,-99.9,-99.9,-99.9,0,0,100,0.00,40.00,12,5,0,0.00
2013-1-17,-200.0,0.0,200.0,-99.9,-99.9,-99.9,0,0,100,0.00,40.00,13,5,0,0.00
2013-1-18,-200.0,0.0,200.0,-99.9,-99.9,-99.9,0,0,100,0.00,40.00,12,3,17,0.00
2013-1-19,-200.0,0.0,200.0,-99.9,-99.9,-99.9,0,0,100,0.00,40.00,8,4,0,0.00
2013-1-20,-200.0,0.0,200.0,-99.9,-99.9,-99.9,0,0,100,0.00,40.00,8,4,0,0.00
2013-1-21,-200.0,0.0,200.0,-99.9,-99.9,-99.9,0,0,100,0.00,40.00,14,5,23,0.00
2013-1-22,-200.0,0.0,200.0,-99.9,-99.9,-99.9,0,0,100,0.00,40.00,15,10,22,0.00
2013-1-23,-200.0,0.0,200.0,-99.9,-99.9,-99.9,0,0,100,0.00,40.00,6,2,0,0.00
2013-1-24,-200.0,0.0,200.0,-99.9,-99.9,-99.9,0,0,100,0.00,40.00,15,10,18,0.00
2013-1-25,-200.0,0.0,200.0,-99.9,-99.9,-99.9,0,0,100,0.00,40.00,24,12,0,0.00
2013-1-27,-200.0,0.0,200.0,-99.9,-99.9,-99.9,0,0,100,0.00,40.00,17,11,0,0.00
2013-1-28,-200.0,0.0,200.0,-99.9,-99.9,-99.9,0,0,100,0.00,40.00,23,16,23,0.00
2013-1-29,-200.0,0.0,200.0,-99.9,-99.9,-99.9,0,0,100,0.00,40.00,14,7,0,0.00
2013-1-30,-200.0,0.0,200.0,-99.9,-99.9,-99.9,0,0,100,0.00,40.00,15,6,0,0.00
2013-1-31,-200.0,0.0,200.0,-99.9,-99.9,-99.9,0,0,100,0.00,40.00,8,3,0,0.00
2013-2-1,-200.0,0.0,200.0,-99.9,-99.9,-99.9,0,0,100,0.00,40.00,10,4,0,0.00
2013-2-2,-200.0,0.0,200.0,-99.9,-99.9,-99.9,0,0,100,0.00,40.00,16,9,21,0.00
2013-2-3,-200.0,0.0,200.0,-99.9,-99.9,-99.9,0,0,100,0.00,40.00,7,2,0,0.00
2013-2-4,-200.0,0.0,200.0,-99.9,-99.9,-99.9,0,0,100,0.00,40.00,28,8,0,0.00
2013-2-5,-200.0,0.0,200.0,-99.9,-99.9,-99.9,0,0,100,0.00,40.00,30,18,30,0.00
2013-2-6,-200.0,0.0,200.0,-99.9,-99.9,-99.9,0,0,100,0.00,40.00,37,20,29,0.00
2013-2-7,-200.0,0.0,200.0,-99.9,-99.9,-99.9,0,0,100,0.00,40.00,12,12,0,0.00
2013-2-8,-200.0,0.0,200.0,-99.9,-99.9,-99.9,0,0,100,0.00,40.00,20,10,25,0.00
2013-2-9,-200.0,0.0,200.0,-99.9,-99.9,-99.9,0,0,100,0.00,40.00,7,2,0,0.00
2013-2-10,-200.0,0.0,200.0,-99.9,-99.9,-99.9,0,0,100,0.00,40.00,16,6,17,0.00
2013-2-11,-200.0,0.0,200.0,-99.9,-99.9,-99.9,0,0,100,0.00,40.00,7,3,0,0.00
2013-2-12,-200.0,0.0,200.0,-99.9,-99.9,-99.9,0,0,100,0.00,40.00,12,4,0,0.00
2013-2-13,-200.0,0.0,200.0,-99.9,-99.9,-99.9,0,0,100,0.00,40.00,8,3,0,0.00
2013-2-14,-200.0,0.0,200.0,-99.9,-99.9,-99.9,0,0,100,0.00,40.00,18,7,21,0.00
2013-2-15,-200.0,0.0,200.0,-99.9,-99.9,-99.9,0,0,100,0.00,40.00,9,4,0,0.00
2013-2-16,-200.0,0.0,200.0,-99.9,-99.9,-99.9,0,0,100,0.00,40.00,17,8,20,0.00
2013-2-17,-200.0,0.0,200.0,-99.9,-99.9,-99.9,0,0,100,0.00,40.00,10,4,0,0.00
2013-2-18,-200.0,0.0,200.0,-99.9,-99.9,-99.9,0,0,100,0.00,40.00,25,11,0,0.00
2013-2-19,-200.0,0.0,200.0,-99.9,-99.9,-99.9,0,0,100,0.00,40.00,23,8,0,0.00
2013-2-20,-200.0,0.0,200.0,-99.9,-99.9,-99.9,0,0,100,0.00,40.00,26,13,0,0.00
2013-2-21,-200.0,0.0,200.0,-99.9,-99.9,-99.9,0,0,100,0.00,40.00,23,12,23,0.00
2013-2-22,-200.0,0.0,200.0,-99.9,-99.9,-99.9,0,0,100,0.00,40.00,35,22,41,0.00
2013-2-23,-200.0,0.0,200.0,-99.9,-99.9,-99.9,0,0,100,0.00,40.00,29,12,38,0.00
2013-2-24,-200.0,0.0,200.0,-99.9,-99.9,-99.9,0,0,100,0.00,40.00,29,7,0,0.00
2013-2-25,-200.0,0.0,200.0,-99.9,-99.9,-99.9,0,0,100,0.00,40.00,30,15,36,0.00
2013-2-26,-200.0,0.0,200.0,-99.9,-99.9,-99.9,0,0,100,0.00,40.00,14,5,0,0.00
2013-2-27,-200.0,0.0,200.0,-99.9,-99.9,-99.9,0,0,100,0.00,40.00,23,7,0,0.00
2013-2-28,-200.0,0.0,200.0,-99.9,-99.9,-99.9,0,0,100,0.00,40.00,30,22,35,0.00
2013-3-4,-200.0,0.0,200.0,-99.9,-99.9,-99.9,0,0,100,0.00,40.00,28,15,29,0.00
2013-3-5,-200.0,0.0,200.0,-99.9,-99.9,-99.9,0,0,100,0.00,40.00,14,6,0,0.00
2013-3-6,-200.0,0.0,200.0,-99.9,-99.9,-99.9,0,0,100,0.00,40.00,36,14,26,0.00
2013-3-7,-200.0,0.0,200.0,-99.9,-99.9,-99.9,0,0,100,0.00,40.00,13,8,0,0.00
2013-3-8,-200.0,0.0,200.0,-99.9,-99.9,-99.9,0,0,100,0.00,40.00,22,12,0,0.00
2013-3-9,-200.0,0.0,200.0,-99.9,-99.9,-99.9,0,0,100,0.00,40.00,15,6,16,0.00
2013-3-10,-200.0,0.0,200.0,-99.9,-99.9,-99.9,0,0,100,0.00,40.00,7,2,0,0.00
2013-3-11,-200.0,0.0,200.0,-99.9,-99.9,-99.9,0,0,100,0.00,40.00,8,4,0,0.00
2013-3-12,-200.0,0.0,200.0,-99.9,-99.9,-99.9,0,0,100,0.00,40.00,9,3,0,0.00
2013-3-13,-200.0,0.0,200.0,-99.9,-99.9,-99.9,0,0,100,0.00,40.00,7,4,0,0.00
2013-3-14,-200.0,0.0,200.0,-99.9,-99.9,-99.9,0,0,100,0.00,40.00,21,12,0,0.00
2013-3-15,-200.0,0.0,200.0,-99.9,-99.9,-99.9,0,0,100,0.00,40.00,14,5,0,0.00
2013-3-16,-200.0,0.0,200.0,-99.9,-99.9,-99.9,0,0,100,0.00,40.00,24,14,30,0.00
2013-3-17,-200.0,0.0,200.0,-99.9,-99.9,-99.9,0,0,100,0.00,40.00,20,7,26,0.00
2013-3-18,-200.0,0.0,200.0,-99.9,-99.9,-99.9,0,0,100,0.00,40.00,21,8,26,0.00
2013-3-19,-200.0,0.0,200.0,-99.9,-99.9,-99.9,0,0,100,0.00,40.00,23,10,24,0.00
2013-3-20,-200.0,0.0,200.0,-99.9,-99.9,-99.9,0,0,100,0.00,40.00,22,17,0,0.00
2013-3-21,-200.0,0.0,200.0,-99.9,-99.9,-99.9,0,0,100,0.00,40.00,28,10,0,0.00
2013-3-22,-200.0,0.0,200.0,-99.9,-99.9,-99.9,0,0,100,0.00,40.00,21,7,25,0.00
2013-3-23,-200.0,0.0,200.0,-99.9,-99.9,-99.9,0,0,100,0.00,40.00,16,7,23,0.00
2013-3-24,-200.0,0.0,200.0,-99.9,-99.9,-99.9,0,0,100,0.00,40.00,10,6,0,0.00
2013-3-25,-200.0,0.0,200.0,-99.9,-99.9,-99.9,0,0,100,0.00,40.00,9,4,0,0.00
2013-3-26,-200.0,0.0,200.0,-99.9,-99.9,-99.9,0,0,100,0.00,40.00,10,5,0,0.00
2013-3-27,-200.0,0.0,200.0,-99.9,-99.9,-99.9,0,0,100,0.00,40.00,9,4,0,0.00
2013-3-28,-200.0,0.0,200.0,-99.9,-99.9,-99.9,0,0,100,0.00,40.00,9,3,0,0.00
2013-3-29,-200.0,0.0,200.0,-99.9,-99.9,-99.9,0,0,100,0.00,40.00,15,7,22,0.00
2013-3-30,-200.0,0.0,200.0,-99.9,-99.9,-99.9,0,0,100,0.00,40.00,24,9,22,0.00
2013-3-31,-200.0,0.0,200.0,-99.9,-99.9,-99.9,0,0,100,0.00,40.00,13,8,0,0.00
2013-4-1,-200.0,0.0,200.0,-99.9,-99.9,-99.9,0,0,100,0.00,40.00,9,4,0,0.00
2013-4-2,-200.0,0.0,200.0,-99.9,-99.9,-99.9,0,0,100,0.00,40.00,15,6,0,0.00
2013-4-3,-200.0,0.0,200.0,-99.9,-99.9,-99.9,0,0,100,0.00,40.00,7,2,0,0.00
2013-4-4,-200.0,0.0,200.0,-99.9,-99.9,-99.9,0,0,100,0.00,40.00,36,15,40,0.00
2013-4-5,-200.0,0.0,200.0,-99.9,-99.9,-99.9,0,0,100,0.00,40.00,39,23,46,0.00
2013-4-6,-200.0,0.0,200.0,-99.9,-99.9,-99.9,0,0,100,0.00,40.00,35,18,45,0.00
2013-4-7,-200.0,0.0,200.0,-99.9,-99.9,-99.9,0,0,100,0.00,40.00,45,23,53,0.00
2013-4-8,-200.0,0.0,200.0,-99.9,-99.9,-99.9,0,0,100,0.00,40.00,17,9,0,0.00
2013-4-9,-200.0,0.0,200.0,-99.9,-99.9,-99.9,0,0,100,0.00,40.00,9,3,0,0.00
2013-4-10,-200.0,0.0,200.0,-99.9,-99.9,-99.9,0,0,100,0.00,40.00,23,11,25,0.00
2013-4-11,-200.0,0.0,200.0,-99.9,-99.9,-99.9,0,0,100,0.00,40.00,21,11,25,0.00
2013-4-12,-200.0,0.0,200.0,-99.9,-99.9,-99.9,0,0,100,0.00,40.00,25,7,0,0.00
2013-4-13,-200.0,0.0,200.0,-99.9,-99.9,-99.9,0,0,100,0.00,40.00,24,10,0,0.00
2013-4-14,-200.0,0.0,200.0,-99.9,-99.9,-99.9,0,0,100,0.00,40.00,15,8,0,0.00
2013-4-15,-200.0,0.0,200.0,-99.9,-99.9,-99.9,0,0,100,0.00,40.00,17,12,23,0.00
2013-4-16,-200.0,0.0,200.0,-99.9,-99.9,-99.9,0,0,100,0.00,40.00,17,8,0,0.00
2013-4-17,-200.0,0.0,200.0,-99.9,-99.9,-99.9,0,0,100,0.00,40.00,16,7,0,0.00
2013-4-18,-200.0,0.0,200.0,-99.9,-99.9,-99.9,0,0,100,0.00,40.00,12,7,0,0.00
2013-4-19,-200.0,0.0,200.0,-99.9,-99.9,-99.9,0,0,100,0.00,40.00,22,10,16,0.00
2013-4-20,-200.0,0.0,200.0,-99.9,-99.9,-99.9,0,0,100,0.00,40.00,20,10,18,0.00
2013-4-21,-200.0,0.0,200.0,-99.9,-99.9,-99.9,0,0,100,0.00,40.00,14,6,21,0.00
2013-4-22,-200.0,0.0,200.0,-99.9,-99.9,-99.9,0,0,100,0.00,40.00,22,11,28,0.00
2013-4-23,-200.0,0.0,200.0,-99.9,-99.9,-99.9,0,0,100,0.00,40.00,26,13,37,0.00
2013-4-24,-200.0,0.0,200.0,-99.9,-99.9,-99.9,0,0,100,0.00,40.00,24,12,32,0.00
2013-4-25,-200.0,0.0,200.0,-99.9,-99.9,-99.9,0,0,100,0.00,40.00,22,10,30,0.00
2013-4-26,-200.0,0.0,200.0,-99.9,-99.9,-99.9,0,0,100,0.00,40.00,20,9,26,0.00
2013-4-27,-200.0,0.0,200.0,-99.9,-99.9,-99.9,0,0,100,0.00,40.00,12,5,0,0.00
2013-4-28,-200.0,0.0,200.0,-99.9,-99.9,-99.9,0,0,100,0.00,40.00,6,4,0,0.00
2013-4-29,-200.0,0.0,200.0,-99.9,-99.9,-99.9,0,0,100,0.00,40.00,21,13,25,0.00
2013-4-30,-200.0,0.0,200.0,-99.9,-99.9,-99.9,0,0,100,0.00,40.00,22,13,28,0.00
2013-5-1,-200.0,0.0,200.0,-99.9,-99.9,-99.9,0,0,100,0.00,40.00,26,12,33,0.00
2013-5-2,-200.0,0.0,200.0,-99.9,-99.9,-99.9,0,0,100,0.00,40.00,26,15,33,0.00
2013-5-3,-200.0,0.0,200.0,-99.9,-99.9,-99.9,0,0,100,0.00,40.00,25,15,32,0.00
2013-5-4,-200.0,0.0,200.0,-99.9,-99.9,-99.9,0,0,100,0.00,40.00,10,9,0,0.00
2013-5-5,-200.0,0.0,200.0,-99.9,-99.9,-99.9,0,0,100,0.00,40.00,29,14,35,0.00
2013-5-6,-200.0,0.0,200.0,-99.9,-99.9,-99.9,0,0,100,0.00,40.00,17,6,0,0.00
2013-5-7,-200.0,0.0,200.0,-99.9,-99.9,-99.9,0,0,100,0.00,40.00,17,8,0,0.00
2013-5-8,-200.0,0.0,200.0,-99.9,-99.9,-99.9,0,0,100,0.00,40.00,12,6,0,0.00
2013-5-9,-200.0,0.0,200.0,-99.9,-99.9,-99.9,0,0,100,0.00,40.00,24,10,30,0.00
2013-5-10,-200.0,0.0,200.0,-99.9,-99.9,-99.9,0,0,100,0.00,40.00,9,4,0,0.00
2013-5-11,-200.0,0.0,200.0,-99.9,-99.9,-99.9,0,0,100,0.00,40.00,8,4,0,0.00
2013-5-12,-200.0,0.0,200.0,-99.9,-99.9,-99.9,0,0,100,0.00,40.00,15,9,0,0.00
2013-5-13,-200.0,0.0,200.0,-99.9,-99.9,-99.9,0,0,100,0.00,40.00,17,9,0,0.00
2013-5-14,-200.0,0.0,200.0,-99.9,-99.9,-99.9,0,0,100,0.00,40.00,16,6,21,0.00
2013-5-15,-200.0,0.0,200.0,-99.9,-99.9,-99.9,0,0,100,0.00,40.00,15,6,0,0.00
2013-5-16,-200.0,0.0,200.0,-99.9,-99.9,-99.9,0,0,100,0.00,40.00,15,8,0,0.00
2013-5-17,-200.0,0.0,200.0,-99.9,-99.9,-99.9,0,0,100,0.00,40.00,9,5,0,0.00
2013-5-18,-200.0,0.0,200.0,-99.9,-99.9,-99.9,0,0,100,0.00,40.00,26,13,0,0.00
2013-5-19,-200.0,0.0,200.0,-99.9,-99.9,-99.9,0,0,100,0.00,40.00,24,17,33,0.00
2013-5-20,-200.0,0.0,200.0,-99.9,-99.9,-99.9,0,0,100,0.00,40.00,18,8,21,0.00
2013-5-21,-200.0,0.0,200.0,-99.9,-99.9,-99.9,0,0,100,0.00,40.00,31,14,37,0.00
2013-5-22,-200.0,0.0,200.0,-99.9,-99.9,-99.9,0,0,100,0.00,40.00,21,14,0,0.00
2013-5-23,-200.0,0.0,200.0,-99.9,-99.9,-99.9,0,0,100,0.00,40.00,20,14,0,0.00
2013-5-24,-200.0,0.0,200.0,-99.9,-99.9,-99.9,0,0,100,0.00,40.00,17,11,0,0.00
2013-5-25,-200.0,0.0,200.0,-99.9,-99.9,-99.9,0,0,100,0.00,40.00,16,7,0,0.00
2013-5-26,-200.0,0.0,200.0,-99.9,-99.9,-99.9,0,0,100,0.00,40.00,26,14,0,0.00
2013-5-27,-200.0,0.0,200.0,-99.9,-99.9,-99.9,0,0,100,0.00,40.00,37,18,35,0.00
2013-5-28,-200.0,0.0,200.0,-99.9,-99.9,-99.9,0,0,100,0.00,40.00,26,15,33,0.00
2013-5-29,-200.0,0.0,200.0,-99.9,-99.9,-99.9,0,0,100,0.00,40.00,40,19,44,0.00
2013-5-30,-200.0,0.0,200.0,-99.9,-99.9,-99.9,0,0,100,0.00,40.00,13,5,0,0.00
2013-5-31,-200.0,0.0,200.0,-99.9,-99.9,-99.9,0,0,100,0.00,40.00,23,10,26,0.00
2013-6-1,-200.0,0.0,200.0,-99.9,-99.9,-99.9,0,0,100,0.00,40.00,15,6,0,0.00
2013-6-2,-200.0,0.0,200.0,-99.9,-99.9,-99.9,0,0,100,0.00,40.00,24,15,31,0.00
2013-6-3,-200.0,0.0,200.0,-99.9,-99.9,-99.9,0,0,100,0.00,40.00,26,17,36,0.00
2013-6-4,-200.0,0.0,200.0,-99.9,-99.9,-99.9,0,0,100,0.00,40.00,18,16,0,0.00
2013-6-5,-200.0,0.0,200.0,-99.9,-99.9,-99.9,0,0,100,0.00,40.00,26,18,36,0.00
2013-6-6,-200.0,0.0,200.0,-99.9,-99.9,-99.9,0,0,100,0.00,40.00,24,15,32,0.00
2013-6-7,-200.0,0.0,200.0,-99.9,-99.9,-99.9,0,0,100,0.00,40.00,23,10,24,0.00
2013-6-8,-200.0,0.0,200.0,-99.9,-99.9,-99.9,0,0,100,0.00,40.00,31,20,36,0.00
2013-6-9,-200.0,0.0,200.0,-99.9,-99.9,-99.9,0,0,100,0.00,40.00,26,20,33,0.00
2013-6-10,-200.0,0.0,200.0,-99.9,-99.9,-99.9,0,0,100,0.00,40.00,21,12,22,0.00
2013-6-11,-200.0,0.0,200.0,-99.9,-99.9,-99.9,0,0,100,0.00,40.00,9,5,0,0.00
2013-6-12,-200.0,0.0,200.0,-99.9,-99.9,-99.9,0,0,100,0.00,40.00,10,6,0,0.00
2013-6-13,-200.0,0.0,200.0,-99.9,-99.9,-99.9,0,0,100,0.00,40.00,14,5,0,0.00
2013-6-14,-200.0,0.0,200.0,-99.9,-99.9,-99.9,0,0,100,0.00,40.00,22,10,28,0.00
2013-6-15,-200.0,0.0,200.0,-99.9,-99.9,-99.9,0,0,100,0.00,40.00,12,4,0,0.00
2013-6-16,-200.0,0.0,200.0,-99.9,-99.9,-99.9,0,0,100,0.00,40.00,12,6,0,0.00
2013-6-17,-200.0,0.0,200.0,-99.9,-99.9,-99.9,0,0,100,0.00,40.00,17,10,0,0.00
2013-6-18,-200.0,0.0,200.0,-99.9,-99.9,-99.9,0,0,100,0.00,40.00,22,14,0,0.00
2013-6-19,-200.0,0.0,200.0,-99.9,-99.9,-99.9,0,0,100,0.00,40.00,16,10,0,0.00
2013-6-20,-200.0,0.0,200.0,-99.9,-99.9,-99.9,0,0,100,0.00,40.00,12,6,0,0.00
2013-6-22,-200.0,0.0,200.0,-99.9,-99.9,-99.9,0,0,100,0.00,40.00,12,6,0,0.00
2013-6-23,-200.0,0.0,200.0,-99.9,-99.9,-99.9,0,0,100,0.00,40.00,23,9,0,0.00
2013-6-24,-200.0,0.0,200.0,-99.9,-99.9,-99.9,0,0,100,0.00,40.00,31,14,23,0.00
2013-6-25,-200.0,0.0,200.0,-99.9,-99.9,-99.9,0,0,100,0.00,40.00,35,18,41,0.00
2013-6-26,-200.0,0.0,200.0,-99.9,-99.9,-99.9,0,0,100,0.00,40.00,18,9,0,0.00
2013-6-27,-200.0,0.0,200.0,-99.9,-99.9,-99.9,0,0,100,0.00,40.00,12,5,0,0.00
2013-6-28,-200.0,0.0,200.0,-99.9,-99.9,-99.9,0,0,100,0.00,40.00,9,2,0,0.00
2013-6-29,-200.0,0.0,200.0,-99.9,-99.9,-99.9,0,0,100,0.00,40.00,20,8,25,0.00
2013-6-30,-200.0,0.0,200.0,-99.9,-99.9,-99.9,0,0,100,0.00,40.00,13,5,0,0.00
2013-7-1,-200.0,0.0,200.0,-99.9,-99.9,-99.9,0,0,100,0.00,40.00,22,13,25,0.00
2013-7-2,-200.0,0.0,200.0,-99.9,-99.9,-99.9,0,0,100,0.00,40.00,26,20,35,0.00
2013-7-3,-200.0,0.0,200.0,-99.9,-99.9,-99.9,0,0,100,0.00,40.00,29,18,33,0.00
2013-7-4,-200.0,0.0,200.0,-99.9,-99.9,-99.9,0,0,100,0.00,40.00,23,15,29,0.00
2013-7-5,-200.0,0.0,200.0,-99.9,-99.9,-99.9,0,0,100,0.00,40.00,23,14,29,0.00
2013-7-6,-200.0,0.0,200.0,-99.9,-99.9,-99.9,0,0,100,0.00,40.00,21,11,26,0.00
2013-7-7,-200.0,0.0,200.0,-99.9,-99.9,-99.9,0,0,100,0.00,40.00,23,14,22,0.00
2013-7-8,-200.0,0.0,200.0,-99.9,-99.9,-99.9,0,0,100,0.00,40.00,23,10,30,0.00
2013-7-9,-200.0,0.0,200.0,-99.9,-99.9,-99.9,0,0,100,0.00,40.00,28,14,35,0.00
2013-7-10,-200.0,0.0,200.0,-99.9,-99.9,-99.9,0,0,100,0.00,40.00,28,20,37,0.00
2013-7-11,-200.0,0.0,200.0,-99.9,-99.9,-99.9,0,0,100,0.00,40.00,24,13,32,0.00
2013-7-12,-200.0,0.0,200.0,-99.9,-99.9,-99.9,0,0,100,0.00,40.00,21,12,24,0.00
2013-7-13,-200.0,0.0,200.0,-99.9,-99.9,-99.9,0,0,100,0.00,40.00,25,14,35,0.00
2013-7-14,-200.0,0.0,200.0,-99.9,-99.9,-99.9,0,0,100,0.00,40.00,26,17,33,0.00
2013-7-15,-200.0,0.0,200.0,-99.9,-99.9,-99.9,0,0,100,0.00,40.00,24,16,30,0.00
2013-7-16,-200.0,0.0,200.0,-99.9,-99.9,-99.9,0,0,100,0.00,40.00,20,11,0,0.00
2013-7-17,-200.0,0.0,200.0,-99.9,-99.9,-99.9,0,0,100,0.00,40.00,13,6,0,0.00
2013-7-18,-200.0,0.0,200.0,-99.9,-99.9,-99.9,0,0,100,0.00,40.00,25,13,31,0.00
2013-7-19,-200.0,0.0,200.0,-99.9,-99.9,-99.9,0,0,100,0.00,40.00,28,18,32,0.00
2013-7-20,-200.0,0.0,200.0,-99.9,-99.9,-99.9,0,0,100,0.00,40.00,26,18,32,0.00
2013-7-21,-200.0,0.0,200.0,-99.9,-99.9,-99.9,0,0,100,0.00,40.00,28,16,35,0.00
2013-7-22,-200.0,0.0,200.0,-99.9,-99.9,-99.9,0,0,100,0.00,40.00,28,17,33,0.00
2013-7-23,-200.0,0.0,200.0,-99.9,-99.9,-99.9,0,0,100,0.00,40.00,29,12,35,0.00
2013-7-24,-200.0,0.0,200.0,-99.9,-99.9,-99.9,0,0,100,0.00,40.00,28,15,35,0.00
2013-7-25,-200.0,0.0,200.0,-99.9,-99.9,-99.9,0,0,100,0.00,40.00,28,21,37,0.00
2013-7-26,-200.0,0.0,200.0,-99.9,-99.9,-99.9,0,0,100,0.00,40.00,32,20,40,0.00
2013-7-27,-200.0,0.0,200.0,-99.9,-99.9,-99.9,0,0,100,0.00,40.00,28,18,33,0.00
2013-7-28,-200.0,0.0,200.0,-99.9,-99.9,-99.9,0,0,100,0.00,40.00,22,13,26,0.00
2013-7-29,-200.0,0.0,200.0,-99.9,-99.9,-99.9,0,0,100,0.00,40.00,15,7,0,0.00
2013-7-30,-200.0,0.0,200.0,-99.9,-99.9,-99.9,0,0,100,0.00,40.00,14,7,0,0.00
2013-7-31,-200.0,0.0,200.0,-99.9,-99.9,-99.9,0,0,100,0.00,40.00,9,5,0,0.00
2013-8-1,-200.0,0.0,200.0,-99.9,-99.9,-99.9,0,0,100,0.00,40.00,9,6,0,0.00
2013-8-2,-200.0,0.0,200.0,-99.9,-99.9,-99.9,0,0,100,0.00,40.00,16,7,20,0.00
2013-8-3,-200.0,0.0,200.0,-99.9,-99.9,-99.9,0,0,100,0.00,40.00,21,9,25,0.00
2013-8-4,-200.0,0.0,200.0,-99.9,-99.9,-99.9,0,0,100,0.00,40.00,23,13,30,0.00
2013-8-5,-200.0,0.0,200.0,-99.9,-99.9,-99.9,0,0,100,0.00,40.00,25,14,32,0.00
2013-8-6,-200.0,0.0,200.0,-99.9,-99.9,-99.9,0,0,100,0.00,40.00,22,10,26,0.00
2013-8-7,-200.0,0.0,200.0,-99.9,-99.9,-99.9,0,0,100,0.00,40.00,10,3,0,0.00
2013-8-8,-200.0,0.0,200.0,-99.9,-99.9,-99.9,0,0,100,0.00,40.00,23,7,24,0.00
2013-8-9,-200.0,0.0,200.0,-99.9,-99.9,-99.9,0,0,100,0.00,40.00,23,7,29,0.00
2013-8-10,-200.0,0.0,200.0,-99.9,-99.9,-99.9,0,0,100,0.00,40.00,10,3,0,0.00
2013-8-11,-200.0,0.0,200.0,-99.9,-99.9,-99.9,0,0,100,0.00,40.00,8,6,0,0.00
2013-8-12,-200.0,0.0,200.0,-99.9,-99.9,-99.9,0,0,100,0.00,40.00,12,4,0,0.00
2013-8-13,-200.0,0.0,200.0,-99.9,-99.9,-99.9,0,0,100,0.00,40.00,15,5,16,0.00
2013-8-14,-200.0,0.0,200.0,-99.9,-99.9,-99.9,0,0,100,0.00,40.00,14,6,0,0.00
2013-8-15,-200.0,0.0,200.0,-99.9,-99.9,-99.9,0,0,100,0.00,40.00,8,3,0,0.00
2013-8-16,-200.0,0.0,200.0,-99.9,-99.9,-99.9,0,0,100,0.00,40.00,6,2,0,0.00
2013-8-17,-200.0,0.0,200.0,-99.9,-99.9,-99.9,0,0,100,0.00,40.00,13,4,0,0.00
2013-8-18,-200.0,0.0,200.0,-99.9,-99.9,-99.9,0,0,100,0.00,40.00,18,8,24,0.00
2013-8-19,-200.0,0.0,200.0,-99.9,-99.9,-99.9,0,0,100,0.00,40.00,23,11,26,0.00
2013-8-20,-200.0,0.0,200.0,-99.9,-99.9,-99.9,0,0,100,0.00,40.00,20,11,25,0.00
2013-8-21,-200.0,0.0,200.0,-99.9,-99.9,-99.9,0,0,100,0.00,40.00,6,6,0,0.00
2013-8-23,-200.0,0.0,200.0,-99.9,-99.9,-99.9,0,0,100,0.00,40.00,8,3,0,0.00
2013-8-24,-200.0,0.0,200.0,-99.9,-99.9,-99.9,0,0,100,0.00,40.00,12,5,0,0.00
2013-8-25,-200.0,0.0,200.0,-99.9,-99.9,-99.9,0,0,100,0.00,40.00,9,3,0,0.00
2013-8-26,-200.0,0.0,200.0,-99.9,-99.9,-99.9,0,0,100,0.00,40.00,18,10,0,0.00
2013-8-27,-200.0,0.0,200.0,-99.9,-99.9,-99.9,0,0,100,0.00,40.00,12,6,0,0.00
2013-8-28,-200.0,0.0,200.0,-99.9,-99.9,-99.9,0,0,100,0.00,40.00,8,5,0,0.00
2013-8-29,-200.0,0.0,200.0,-99.9,-99.9,-99.9,0,0,100,0.00,40.00,23,10,0,0.00
2013-8-30,-200.0,0.0,200.0,-99.9,-99.9,-99.9,0,0,100,0.00,40.00,15,7,0,0.00
2013-8-31,-200.0,0.0,200.0,-99.9,-99.9,-99.9,0,0,100,0.00,40.00,9,3,0,0.00
2013-9-1,-200.0,0.0,200.0,-99.9,-99.9,-99.9,0,0,100,0.00,40.00,14,7,0,0.00
2013-9-2,-200.0,0.0,200.0,-99.9,-99.9,-99.9,0,0,100,0.00,40.00,13,8,0,0.00
2013-9-3,-200.0,0.0,200.0,-99.9,-99.9,-99.9,0,0,100,0.00,40.00,12,6,0,0.00
2013-9-4,-200.0,0.0,200.0,-99.9,-99.9,-99.9,0,0,100,0.00,40.00,9,1,0,0.00
2013-9-5,-200.0,0.0,200.0,-99.9,-99.9,-99.9,0,0,100,0.00,40.00,14,5,0,0.00
2013-9-6,-200.0,0.0,200.0,-99.9,-99.9,-99.9,0,0,100,0.00,40.00,16,8,0,0.00
2013-9-7,-200.0,0.0,200.0,-99.9,-99.9,-99.9,0,0,100,0.00,40.00,21,10,26,0.00
2013-9-8,-200.0,0.0,200.0,-99.9,-99.9,-99.9,0,0,100,0.00,40.00,16,16,0,0.00
2013-9-9,-200.0,0.0,200.0,-99.9,-99.9,-99.9,0,0,100,0.00,40.00,24,15,32,0.00
2013-9-10,-200.0,0.0,200.0,-99.9,-99.9,-99.9,0,0,100,0.00,40.00,20,12,23,0.00
2013-9-11,-200.0,0.0,200.0,-99.9,-99.9,-99.9,0,0,100,0.00,40.00,18,9,0,0.00
2013-9-12,-200.0,0.0,200.0,-99.9,-99.9,-99.9,0,0,100,0.00,40.00,7,2,0,0.00
2013-9-13,-200.0,0.0,200.0,-99.9,-99.9,-99.9,0,0,100,0.00,40.00,14,4,0,0.00
2013-9-14,-200.0,0.0,200.0,-99.9,-99.9,-99.9,0,0,100,0.00,40.00,10,3,0,0.00
2013-9-15,-200.0,0.0,200.0,-99.9,-99.9,-99.9,0,0,100,0.00,40.00,17,6,0,0.00
2013-9-16,-200.0,0.0,200.0,-99.9,-99.9,-99.9,0,0,100,0.00,40.00,8,3,0,0.00
2013-9-17,-200.0,0.0,200.0,-99.9,-99.9,-99.9,0,0,100,0.00,40.00,13,5,0,0.00
2013-9-18,-200.0,0.0,200.0,-99.9,-99.9,-99.9,0,0,100,0.00,40.00,7,2,0,0.00
2013-9-19,-200.0,0.0,200.0,-99.9,-99.9,-99.9,0,0,100,0.00,40.00,8,2,0,0.00
2013-9-20,-200.0,0.0,200.0,-99.9,-99.9,-99.9,0,0,100,0.00,40.00,12,4,0,0.00
2013-9-21,-200.0,0.0,200.0,-99.9,-99.9,-99.9,0,0,100,0.00,40.00,9,4,0,0.00
2013-9-22,-200.0,0.0,200.0,-99.9,-99.9,-99.9,0,0,100,0.00,40.00,39,14,47,0.00
2013-9-23,-200.0,0.0,200.0,-99.9,-99.9,-99.9,0,0,100,0.00,40.00,20,8,18,0.00
2013-9-24,-200.0,0.0,200.0,-99.9,-99.9,-99.9,0,0,100,0.00,40.00,25,6,0,0.00
2013-9-25,-200.0,0.0,200.0,-99.9,-99.9,-99.9,0,0,100,0.00,40.00,10,3,0,0.00
2013-9-26,-200.0,0.0,200.0,-99.9,-99.9,-99.9,0,0,100,0.00,40.00,10,3,0,0.00
2013-9-27,-200.0,0.0,200.0,-99.9,-99.9,-99.9,0,0,100,0.00,40.00,25,6,0,0.00
2013-9-28,-200.0,0.0,200.0,-99.9,-99.9,-99.9,0,0,100,0.00,40.00,43,18,63,0.00
2013-9-29,-200.0,0.0,200.0,-99.9,-99.9,-99.9,0,0,100,0.00,40.00,45,25,54,0.00
2013-9-30,-200.0,0.0,200.0,-99.9,-99.9,-99.9,0,0,100,0.00,40.00,23,10,0,0.00
2013-10-1,-200.0,0.0,200.0,-99.9,-99.9,-99.9,0,0,100,0.00,40.00,6,1,0,0.00
2013-10-2,-200.0,0.0,200.0,-99.9,-99.9,-99.9,0,0,100,0.00,40.00,13,4,0,0.00
2013-10-3,-200.0,0.0,200.0,-99.9,-99.9,-99.9,0,0,100,0.00,40.00,7,3,0,0.00
2013-10-4,-200.0,0.0,200.0,-99.9,-99.9,-99.9,0,0,100,0.00,40.00,16,4,0,0.00
2013-10-5,-200.0,0.0,200.0,-99.9,-99.9,-99.9,0,0,100,0.00,40.00,9,2,0,0.00
2013-10-6,-200.0,0.0,200.0,-99.9,-99.9,-99.9,0,0,100,0.00,40.00,15,6,0,0.00
2013-10-7,-200.0,0.0,200.0,-99.9,-99.9,-99.9,0,0,100,0.00,40.00,20,6,25,0.00
2013-10-8,-200.0,0.0,200.0,-99.9,-99.9,-99.9,0,0,100,0.00,40.00,16,4,21,0.00
2013-10-9,-200.0,0.0,200.0,-99.9,-99.9,-99.9,0,0,100,0.00,40.00,15,5,0,0.00
2013-10-10,-200.0,0.0,200.0,-99.9,-99.9,-99.9,0,0,100,0.00,40.00,18,4,24,0.00
2013-10-11,-200.0,0.0,200.0,-99.9,-99.9,-99.9,0,0,100,0.00,40.00,13,3,0,0.00
2013-10-12,-200.0,0.0,200.0,-99.9,-99.9,-99.9,0,0,100,0.00,40.00,8,2,0,0.00
2013-10-13,-200.0,0.0,200.0,-99.9,-99.9,-99.9,0,0,100,0.00,40.00,15,5,0,0.00
2013-10-14,-200.0,0.0,200.0,-99.9,-99.9,-99.9,0,0,100,0.00,40.00,14,4,0,0.00
2013-10-15,-200.0,0.0,200.0,-99.9,-99.9,-99.9,0,0,100,0.00,40.00,10,3,0,0.00
2013-10-16,-200.0,0.0,200.0,-99.9,-99.9,-99.9,0,0,100,0.00,40.00,16,4,0,0.00
2013-10-17,-200.0,0.0,200.0,-99.9,-99.9,-99.9,0,0,100,0.00,40.00,16,4,22,0.00
2013-10-18,-200.0,0.0,200.0,-99.9,-99.9,-99.9,0,0,100,0.00,40.00,10,4,0,0.00
2013-10-19,-200.0,0.0,200.0,-99.9,-99.9,-99.9,0,0,100,0.00,40.00,16,4,0,0.00
2013-10-20,-200.0,0.0,200.0,-99.9,-99.9,-99.9,0,0,100,0.00,40.00,16,5,18,0.00
2013-10-21,-200.0,0.0,200.0,-99.9,-99.9,-99.9,0,0,100,0.00,40.00,14,5,17,0.00
2013-10-22,-200.0,0.0,200.0,-99.9,-99.9,-99.9,0,0,100,0.00,40.00,6,2,0,0.00
2013-10-23,-200.0,0.0,200.0,-99.9,-99.9,-99.9,0,0,100,0.00,40.00,10,3,0,0.00
2013-10-24,-200.0,0.0,200.0,-99.9,-99.9,-99.9,0,0,100,0.00,40.00,13,3,0,0.00
2013-10-25,-200.0,0.0,200.0,-99.9,-99.9,-99.9,0,0,100,0.00,40.00,8,2,0,0.00
2013-10-26,-200.0,0.0,200.0,-99.9,-99.9,-99.9,0,0,100,0.00,40.00,15,8,20,0.00
2013-10-27,-200.0,0.0,200.0,-99.9,-99.9,-99.9,0,0,100,0.00,40.00,17,5,0,0.00
2013-10-28,-200.0,0.0,200.0,-99.9,-99.9,-99.9,0,0,100,0.00,40.00,12,3,0,0.00
2013-10-29,-200.0,0.0,200.0,-99.9,-99.9,-99.9,0,0,100,0.00,40.00,10,4,0,0.00
2013-10-30,-200.0,0.0,200.0,-99.9,-99.9,-99.9,0,0,100,0.00,40.00,7,3,0,0.00
2013-10-31,-200.0,0.0,200.0,-99.9,-99.9,-99.9,0,0,100,0.00,40.00,9,4,0,0.00
2013-11-1,-200.0,0.0,200.0,-99.9,-99.9,-99.9,0,0,100,0.00,40.00,13,3,0,0.00
2013-11-2,-200.0,0.0,200.0,-99.9,-99.9,-99.9,0,0,100,0.00,40.00,25,11,31,0.00
2013-11-3,-200.0,0.0,200.0,-99.9,-99.9,-99.9,0,0,100,0.00,40.00,12,3,0,0.00
2013-11-4,-200.0,0.0,200.0,-99.9,-99.9,-99.9,0,0,100,0.00,40.00,10,5,0,0.00
2013-11-5,-200.0,0.0,200.0,-99.9,-99.9,-99.9,0,0,100,0.00,40.00,18,16,0,0.00
2014-1-1,-200.0,0.0,200.0,-99.9,-99.9,-99.9,0,0,100,0.00,40.00,8,7,0,0.00